Terminal Aerodrome Forecast
Issued by NWS

Current Version | Previous Version | Graphics & Text | Print | Product List | Glossary On
Versions: 1 2 3 4 5 6 7 8 9 10 11 12 13 14 15 16 17 18 19 20 21 22 23 24
000
FTUS41 KILN 220540
TAFLCK
TAF
KLCK 220540Z 2206/2306 12003KT 2SM -RA BR SCT018 OVC025
      TEMPO 2206/2208 1/4SM FG BKN004 OVC015
     FM220800 16006KT P6SM BKN080 WS020/22040KT
     FM221700 17012G20KT P6SM SCT100 BKN150 WS020/22040KT
     FM222100 17012G20KT P6SM VCSH BKN060
     FM222200 17012G20KT 4SM -SHRA BR OVC020
     FM230400 22008KT P6SM VCSH BKN030 OVC060=

USA.gov is the U.S. government's official web portal to all federal, state and local government web resources and services.